createdAt,value
2018-07-03T00:00:47.791Z,3.60
2018-07-03T00:03:16.704Z,4.30
2018-07-03T00:05:45.595Z,3.80
2018-07-03T00:08:14.479Z,3.67
2018-07-03T00:10:43.400Z,3.87
2018-07-03T00:13:12.315Z,3.60
2018-07-03T00:15:42.537Z,3.90
2018-07-03T00:18:11.464Z,4.10
2018-07-03T00:20:40.291Z,3.57
2018-07-03T00:23:09.248Z,3.83
2018-07-03T00:25:38.148Z,4.20
2018-07-03T00:28:07.013Z,4.47
2018-07-03T00:30:35.975Z,4.50
2018-07-03T00:33:04.848Z,4.07
2018-07-03T00:35:33.721Z,4.47
2018-07-03T00:38:02.908Z,3.80
2018-07-03T00:40:31.757Z,3.80
2018-07-03T00:43:00.264Z,4.03
2018-07-03T00:45:29.112Z,3.60
2018-07-03T00:47:58.070Z,4.23
2018-07-03T00:50:26.996Z,3.77
2018-07-03T00:52:55.872Z,3.80
2018-07-03T00:55:24.789Z,4.10
2018-07-03T00:57:53.327Z,3.50
2018-07-03T01:00:35.659Z,4.27
2018-07-03T01:03:05.238Z,3.87
2018-07-03T01:05:34.456Z,3.97
2018-07-03T01:08:03.516Z,3.90
2018-07-03T01:10:32.362Z,3.87
2018-07-03T01:13:01.301Z,4.47
2018-07-03T01:15:30.137Z,4.90
2018-07-03T01:17:59.029Z,4.63
2018-07-03T01:20:28.101Z,4.90
2018-07-03T01:22:58.420Z,4.00
2018-07-03T01:25:27.352Z,4.00
2018-07-03T01:27:55.791Z,3.93
2018-07-03T01:30:24.725Z,3.67
2018-07-03T01:32:53.547Z,4.00
2018-07-03T01:35:22.400Z,4.50
2018-07-03T01:37:50.936Z,3.93
2018-07-03T01:40:19.855Z,4.70
2018-07-03T01:42:48.802Z,5.40
2018-07-03T01:45:17.721Z,5.37
2018-07-03T01:47:46.599Z,4.10
2018-07-03T01:50:15.451Z,4.23
2018-07-03T01:52:44.341Z,3.93
2018-07-03T01:55:13.160Z,3.97
2018-07-03T01:57:42.797Z,4.10
2018-07-03T02:00:11.693Z,4.10
2018-07-03T02:02:40.592Z,4.30
2018-07-03T02:05:09.515Z,4.10
2018-07-03T02:07:38.400Z,4.37
2018-07-03T02:10:06.956Z,4.50
2018-07-03T02:12:35.757Z,3.90
2018-07-03T02:15:04.792Z,4.03
2018-07-03T02:17:33.547Z,4.37
2018-07-03T02:20:02.124Z,4.40
2018-07-03T02:22:30.968Z,4.10
2018-07-03T02:24:59.895Z,4.40
2018-07-03T02:27:28.749Z,4.10
2018-07-03T02:29:58.088Z,4.50
2018-07-03T02:32:26.952Z,4.23
2018-07-03T02:34:55.878Z,4.07
2018-07-03T02:37:25.102Z,4.10
2018-07-03T02:39:53.968Z,4.30
2018-07-03T02:42:22.925Z,4.20
2018-07-03T02:44:51.899Z,3.73
2018-07-03T02:47:20.733Z,4.20
2018-07-03T02:49:49.740Z,3.90
2018-07-03T02:52:18.369Z,5.00
2018-07-03T02:54:48.364Z,3.87
2018-07-03T02:57:17.581Z,4.10
2018-07-03T02:59:46.991Z,5.73
2018-07-03T03:02:16.168Z,5.13
2018-07-03T03:04:45.293Z,4.90
2018-07-03T03:07:14.486Z,5.30
2018-07-03T03:09:43.764Z,4.37
2018-07-03T03:12:12.933Z,4.30
2018-07-03T03:14:41.893Z,4.23
2018-07-03T03:17:11.104Z,4.30
2018-07-03T03:19:40.321Z,4.20
2018-07-03T03:22:09.495Z,4.10
2018-07-03T03:24:38.522Z,4.50
2018-07-03T03:27:07.813Z,4.20
2018-07-03T03:29:36.795Z,4.27
2018-07-03T03:32:05.429Z,4.83
2018-07-03T03:34:34.716Z,5.07
2018-07-03T03:37:03.904Z,5.20
2018-07-03T03:39:33.176Z,5.00
2018-07-03T03:42:02.236Z,5.23
2018-07-03T03:44:33.558Z,4.50
2018-07-03T03:47:02.658Z,4.50
2018-07-03T03:49:31.824Z,4.73
2018-07-03T03:52:00.901Z,4.37
2018-07-03T03:54:29.536Z,4.60
2018-07-03T03:56:58.788Z,4.30
2018-07-03T03:59:27.928Z,4.30
2018-07-03T04:01:56.976Z,4.30
2018-07-03T04:04:26.084Z,4.37
2018-07-03T04:06:55.326Z,4.43
2018-07-03T04:09:24.463Z,4.17
2018-07-03T04:11:54.274Z,3.97
2018-07-03T04:14:23.152Z,4.30
2018-07-03T04:16:53.796Z,5.20
2018-07-03T04:19:23.036Z,4.27
2018-07-03T04:21:52.191Z,4.40
2018-07-03T04:24:21.335Z,4.37
2018-07-03T04:26:50.513Z,4.17
2018-07-03T04:29:19.610Z,4.17
2018-07-03T04:31:48.768Z,3.57
2018-07-03T04:34:18.027Z,4.30
2018-07-03T04:36:47.195Z,3.80
2018-07-03T04:39:15.817Z,4.20
2018-07-03T04:41:44.972Z,3.97
2018-07-03T04:44:13.495Z,3.77
2018-07-03T04:46:42.636Z,3.67
2018-07-03T04:49:11.871Z,4.30
2018-07-03T04:51:41.078Z,4.00
2018-07-03T04:54:10.229Z,4.77
2018-07-03T04:56:39.466Z,4.00
2018-07-03T04:59:08.539Z,4.13
2018-07-03T05:01:37.769Z,4.30
2018-07-03T05:04:07.135Z,4.00
2018-07-03T05:06:35.764Z,4.30
2018-07-03T05:09:06.788Z,4.33
2018-07-03T05:11:36.196Z,4.13
2018-07-03T05:14:05.596Z,4.50
2018-07-03T05:16:34.898Z,4.03
2018-07-03T05:19:04.091Z,4.10
2018-07-03T05:21:33.395Z,4.03
2018-07-03T05:24:02.692Z,4.50
2018-07-03T05:26:31.852Z,6.30
2018-07-03T05:29:01.008Z,4.90
2018-07-03T05:31:30.207Z,7.37
2018-07-03T05:33:59.272Z,6.87
2018-07-03T05:36:28.473Z,6.20
2018-07-03T05:38:57.505Z,6.37
2018-07-03T05:41:26.793Z,10.03
2018-07-03T05:43:55.872Z,5.83
2018-07-03T05:46:25.004Z,6.10
2018-07-03T05:48:54.163Z,5.13
2018-07-03T05:51:23.480Z,5.47
2018-07-03T05:53:52.660Z,6.63
2018-07-03T05:56:21.858Z,5.33
2018-07-03T05:58:51.037Z,6.03
2018-07-03T06:01:20.152Z,4.23
2018-07-03T06:03:49.293Z,4.63
2018-07-03T06:06:18.856Z,4.93
2018-07-03T06:08:47.992Z,5.03
2018-07-03T06:11:17.353Z,4.90
2018-07-03T06:13:47.381Z,4.70
2018-07-03T06:16:16.787Z,4.77
2018-07-03T06:18:46.025Z,4.57
2018-07-03T06:21:15.274Z,4.87
2018-07-03T06:23:44.628Z,5.30
2018-07-03T06:26:13.727Z,5.20
2018-07-03T06:28:42.997Z,4.63
2018-07-03T06:31:12.108Z,4.90
2018-07-03T06:33:41.356Z,4.63
2018-07-03T06:36:10.650Z,5.23
2018-07-03T06:38:39.960Z,4.53
2018-07-03T06:41:09.113Z,5.00
2018-07-03T06:43:38.261Z,5.10
2018-07-03T06:46:07.452Z,5.70
2018-07-03T06:48:36.708Z,5.63
2018-07-03T06:51:05.957Z,5.47
2018-07-03T06:53:35.120Z,4.57
2018-07-03T06:56:03.642Z,6.10
2018-07-03T06:58:33.028Z,4.57
2018-07-03T07:01:02.212Z,4.70
2018-07-03T07:03:31.929Z,4.10
2018-07-03T07:06:01.003Z,4.40
2018-07-03T07:08:29.604Z,4.23
2018-07-03T07:10:58.815Z,4.33
2018-07-03T07:13:27.983Z,4.90
2018-07-03T07:15:56.779Z,4.13
2018-07-03T07:18:25.351Z,4.53
2018-07-03T07:20:53.951Z,4.30
2018-07-03T07:23:23.117Z,4.53
2018-07-03T07:25:52.271Z,4.83
2018-07-03T07:28:21.689Z,4.30
2018-07-03T07:30:50.864Z,4.03
2018-07-03T07:33:20.016Z,4.97
2018-07-03T07:35:49.108Z,5.20
2018-07-03T07:38:18.404Z,5.33
2018-07-03T07:40:47.549Z,4.37
2018-07-03T07:43:16.645Z,5.60
2018-07-03T07:45:45.755Z,8.40
2018-07-03T07:48:14.894Z,5.47
2018-07-03T07:50:44.127Z,4.83
2018-07-03T07:53:13.288Z,5.07
2018-07-03T07:55:42.430Z,4.83
2018-07-03T07:58:11.650Z,4.53
2018-07-03T08:00:40.826Z,4.60
2018-07-03T08:03:11.244Z,4.50
2018-07-03T08:05:40.340Z,5.13
2018-07-03T08:08:09.548Z,4.63
2018-07-03T08:10:38.605Z,4.90
2018-07-03T08:13:07.245Z,5.70
2018-07-03T08:15:36.277Z,4.87
2018-07-03T08:18:05.622Z,4.47
2018-07-03T08:20:34.911Z,4.17
2018-07-03T08:23:04.311Z,4.27
2018-07-03T08:25:33.626Z,4.83
2018-07-03T08:28:02.981Z,4.43
2018-07-03T08:30:32.227Z,4.60
2018-07-03T08:33:01.477Z,5.83
2018-07-03T08:35:30.720Z,3.93
2018-07-03T08:38:00.018Z,4.70
2018-07-03T08:40:29.168Z,3.90
2018-07-03T08:42:58.340Z,4.00
2018-07-03T08:45:27.772Z,3.90
2018-07-03T08:47:56.916Z,3.80
2018-07-03T08:50:26.164Z,3.90
2018-07-03T08:52:55.412Z,4.10
2018-07-03T08:55:24.564Z,4.30
2018-07-03T08:57:53.814Z,4.50
2018-07-03T09:00:22.968Z,4.10
2018-07-03T09:02:51.600Z,3.80
2018-07-03T09:05:20.832Z,4.70
2018-07-03T09:07:50.150Z,4.83
2018-07-03T09:10:18.731Z,4.90
2018-07-03T09:12:48.598Z,4.30
2018-07-03T09:15:17.836Z,4.20
2018-07-03T09:17:46.782Z,4.50
2018-07-03T09:20:15.612Z,4.97
2018-07-03T09:22:44.484Z,4.10
2018-07-03T09:25:13.344Z,4.50
2018-07-03T09:27:42.249Z,4.80
2018-07-03T09:30:11.229Z,3.97
2018-07-03T09:32:40.158Z,4.80
2018-07-03T09:35:09.144Z,4.20
2018-07-03T09:37:38.007Z,5.70
2018-07-03T09:40:06.996Z,5.07
2018-07-03T09:42:35.914Z,4.20
2018-07-03T09:45:06.985Z,5.17
2018-07-03T09:47:35.869Z,4.13
2018-07-03T09:50:05.841Z,5.07
2018-07-03T09:52:35.157Z,5.50
2018-07-03T09:55:04.100Z,4.73
2018-07-03T09:57:34.066Z,5.23
2018-07-03T10:00:02.978Z,5.63
2018-07-03T10:02:32.186Z,5.23
2018-07-03T10:05:01.278Z,4.30
2018-07-03T10:07:30.137Z,4.90
2018-07-03T10:10:00.471Z,4.40
2018-07-03T10:12:30.784Z,4.57
2018-07-03T10:14:59.678Z,4.20
2018-07-03T10:17:28.572Z,4.20
2018-07-03T10:20:00.190Z,3.67
2018-07-03T10:22:29.037Z,3.57
2018-07-03T10:24:57.860Z,19.57
2018-07-03T10:27:26.431Z,5.97
2018-07-03T10:29:55.376Z,3.70
2018-07-03T10:32:24.216Z,3.77
2018-07-03T10:34:53.136Z,5.67
2018-07-03T10:37:22.005Z,3.50
2018-07-03T10:39:50.472Z,3.93
2018-07-03T10:42:19.524Z,3.43
2018-07-03T10:44:48.936Z,3.33
2018-07-03T10:47:19.388Z,3.53
2018-07-03T10:49:48.302Z,4.30
2018-07-03T10:52:16.798Z,5.30
2018-07-03T10:54:45.669Z,5.00
2018-07-03T10:57:14.564Z,3.63
2018-07-03T10:59:43.485Z,5.27
2018-07-03T11:02:12.368Z,6.17
2018-07-03T11:04:41.633Z,5.90
2018-07-03T11:07:10.628Z,3.87
2018-07-03T11:09:39.656Z,3.83
2018-07-03T11:12:10.455Z,4.23
2018-07-03T11:14:45.919Z,4.37
2018-07-03T11:17:16.968Z,4.27
2018-07-03T11:19:51.005Z,4.70
2018-07-03T11:22:21.926Z,3.97
2018-07-03T11:24:53.181Z,3.87
2018-07-03T11:27:24.090Z,3.90
2018-07-03T11:29:53.128Z,4.20
2018-07-03T11:32:24.411Z,4.30
2018-07-03T11:34:54.987Z,4.23
2018-07-03T11:37:25.221Z,4.57
2018-07-03T11:39:57.857Z,5.37
2018-07-03T11:42:31.420Z,5.20
2018-07-03T11:45:00.526Z,4.27
2018-07-03T11:47:29.448Z,3.60
2018-07-03T11:49:58.332Z,4.07
2018-07-03T11:52:26.875Z,3.50
2018-07-03T11:54:55.846Z,3.83
2018-07-03T11:57:24.792Z,4.07
2018-07-03T11:59:53.729Z,3.90
2018-07-03T12:02:22.710Z,3.90
2018-07-03T12:04:51.540Z,4.40
2018-07-03T12:07:20.448Z,3.97
2018-07-03T12:09:49.406Z,4.57
2018-07-03T12:12:18.469Z,4.10
2018-07-03T12:14:47.524Z,4.20
2018-07-03T12:17:16.383Z,4.20
2018-07-03T12:19:45.431Z,4.47
2018-07-03T12:22:13.869Z,4.10
2018-07-03T12:24:42.825Z,4.20
2018-07-03T12:27:11.789Z,5.80
2018-07-03T12:29:40.299Z,4.30
2018-07-03T12:32:09.188Z,5.60
2018-07-03T12:34:38.052Z,3.93
2018-07-03T12:37:06.588Z,3.80
2018-07-03T12:39:35.472Z,3.67
2018-07-03T12:42:05.070Z,3.62
2018-07-03T12:44:34.100Z,4.00
2018-07-03T12:47:03.949Z,4.17
2018-07-03T12:49:33.660Z,3.60
2018-07-03T12:52:02.616Z,4.10
2018-07-03T12:54:31.456Z,3.43
2018-07-03T12:57:01.303Z,3.85
2018-07-03T12:59:30.249Z,4.12
2018-07-03T13:01:59.297Z,3.77
2018-07-03T13:04:29.885Z,4.00
2018-07-03T13:06:58.807Z,3.80
2018-07-03T13:09:27.713Z,3.80
2018-07-03T13:11:56.661Z,4.10
2018-07-03T13:14:25.576Z,4.20
2018-07-03T13:16:54.397Z,4.20
2018-07-03T13:19:23.300Z,4.25
2018-07-03T13:21:52.189Z,3.87
2018-07-03T13:24:20.672Z,4.28
2018-07-03T13:26:49.656Z,3.90
2018-07-03T13:29:19.019Z,3.60
2018-07-03T13:31:48.340Z,3.70
2018-07-03T13:34:17.248Z,3.90
2018-07-03T13:36:46.202Z,4.30
2018-07-03T13:39:15.128Z,4.17
2018-07-03T13:41:43.948Z,4.00
2018-07-03T13:44:12.869Z,4.33
2018-07-03T13:46:42.994Z,3.87
2018-07-03T13:49:11.923Z,4.30
2018-07-03T13:51:40.921Z,6.42
2018-07-03T13:54:09.818Z,5.08
2018-07-03T13:56:38.784Z,4.35
2018-07-03T13:59:07.755Z,3.90
2018-07-03T14:01:37.128Z,4.12
2018-07-03T14:04:06.539Z,4.85
2018-07-03T14:06:35.428Z,3.98
2018-07-03T14:09:05.985Z,3.90
2018-07-03T14:11:34.915Z,3.65
2018-07-03T14:14:04.089Z,4.40
2018-07-03T14:16:33.012Z,4.10
2018-07-03T14:19:01.501Z,4.25
2018-07-03T14:21:30.708Z,3.83
2018-07-03T14:23:59.664Z,4.37
2018-07-03T14:26:28.623Z,3.75
2018-07-03T14:28:57.520Z,4.03
2018-07-03T14:31:26.490Z,4.50
2018-07-03T14:33:55.378Z,3.70
2018-07-03T14:36:24.605Z,3.98
2018-07-03T14:38:53.525Z,3.92
2018-07-03T14:41:22.501Z,4.00
2018-07-03T14:43:52.682Z,3.80
2018-07-03T14:46:21.571Z,3.83
2018-07-03T14:48:50.466Z,3.75
2018-07-03T14:51:19.382Z,3.60
2018-07-03T14:53:48.310Z,3.50
2018-07-03T14:56:17.244Z,4.22
2018-07-03T14:58:46.172Z,3.65
2018-07-03T15:01:15.033Z,3.80
2018-07-03T15:03:44.743Z,3.87
2018-07-03T15:06:13.557Z,3.90
2018-07-03T15:08:42.512Z,3.83
2018-07-03T15:11:11.360Z,3.85
2018-07-03T15:13:40.243Z,4.08
2018-07-03T15:16:09.407Z,3.85
2018-07-03T15:18:43.194Z,3.87
2018-07-03T15:21:12.199Z,3.65
2018-07-03T15:23:41.171Z,3.90
2018-07-03T15:26:10.124Z,3.77
2018-07-03T15:28:38.996Z,4.00
2018-07-03T15:31:07.909Z,3.90
2018-07-03T15:33:37.056Z,3.70
2018-07-03T15:36:06.044Z,3.98
2018-07-03T15:38:34.952Z,4.10
2018-07-03T15:41:03.925Z,4.12
2018-07-03T15:43:32.880Z,3.65
2018-07-03T15:46:01.303Z,4.00
2018-07-03T15:48:30.244Z,4.08
2018-07-03T15:50:59.558Z,3.70
2018-07-03T15:53:28.573Z,3.65
2018-07-03T15:55:58.596Z,3.87
2018-07-03T15:58:27.472Z,3.90
2018-07-03T16:00:56.408Z,4.08
2018-07-03T16:05:40.275Z,3.80
2018-07-03T16:09:17.806Z,3.90
2018-07-03T16:11:46.832Z,6.08
2018-07-03T16:14:15.737Z,5.47
2018-07-03T16:16:45.959Z,4.12
2018-07-03T16:19:20.005Z,3.95
2018-07-03T16:21:48.884Z,3.98
2018-07-03T16:24:17.801Z,4.22
2018-07-03T16:26:46.762Z,4.47
2018-07-03T16:29:15.648Z,3.85
2018-07-03T16:31:44.624Z,4.20
2018-07-03T16:34:13.524Z,3.75
2018-07-03T16:36:42.440Z,4.10
2018-07-03T16:39:12.529Z,4.08
2018-07-03T16:41:42.170Z,4.30
2018-07-03T16:44:11.382Z,4.00
2018-07-03T16:46:40.360Z,4.05
2018-07-03T16:49:09.189Z,4.10
2018-07-03T16:51:38.196Z,4.10
2018-07-03T16:54:07.129Z,3.90
2018-07-03T16:56:36.040Z,3.98
2018-07-03T16:59:05.020Z,4.20
2018-07-03T17:01:33.891Z,4.25
2018-07-03T17:04:02.868Z,4.80
2018-07-03T17:06:32.100Z,4.42
2018-07-03T17:09:03.176Z,4.30
2018-07-03T17:11:32.101Z,4.83
2018-07-03T17:14:01.497Z,4.90
2018-07-03T17:16:31.827Z,4.80
2018-07-03T17:19:05.976Z,5.08
2018-07-03T17:21:34.874Z,4.92
2018-07-03T17:24:03.866Z,5.10
2018-07-03T17:26:32.776Z,4.87
2018-07-03T17:29:01.917Z,5.10
2018-07-03T17:31:31.140Z,5.25
2018-07-03T17:34:00.018Z,4.78
2018-07-03T17:36:28.898Z,4.67
2018-07-03T17:39:04.741Z,4.62
2018-07-03T17:41:44.781Z,4.95
2018-07-03T17:44:24.850Z,5.25
2018-07-03T17:46:53.744Z,5.00
2018-07-03T17:49:24.561Z,5.25
2018-07-03T17:51:53.556Z,5.00
2018-07-03T17:54:22.519Z,5.07
2018-07-03T17:56:51.304Z,5.83
2018-07-03T17:59:20.239Z,4.75
2018-07-03T18:01:49.639Z,5.00
2018-07-03T18:04:18.559Z,5.15
2018-07-03T18:06:47.528Z,4.92
2018-07-03T18:09:17.221Z,5.43
2018-07-03T18:11:46.197Z,5.30
2018-07-03T18:14:15.037Z,5.93
2018-07-03T18:16:43.965Z,5.90
2018-07-03T18:19:17.584Z,5.60
2018-07-03T18:21:46.613Z,5.70
2018-07-03T18:24:15.440Z,5.70
2018-07-03T18:26:44.489Z,5.60
2018-07-03T18:29:13.499Z,5.20
2018-07-03T18:31:42.429Z,5.93
2018-07-03T18:34:11.380Z,5.63
2018-07-03T18:36:40.332Z,5.87
2018-07-03T18:39:09.852Z,5.00
2018-07-03T18:41:38.793Z,5.87
2018-07-03T18:44:08.286Z,5.23
2018-07-03T18:46:38.545Z,6.63
2018-07-03T18:49:07.575Z,6.93
2018-07-03T18:51:36.521Z,6.90
2018-07-03T18:54:04.985Z,7.10
2018-07-03T18:56:34.863Z,5.80
2018-07-03T18:59:03.857Z,10.80
2018-07-03T19:01:32.813Z,8.63
2018-07-03T19:04:01.746Z,6.83
2018-07-03T19:06:30.766Z,7.40
2018-07-03T19:09:00.062Z,7.80
2018-07-03T19:11:29.311Z,5.47
2018-07-03T19:13:58.173Z,5.03
2018-07-03T19:16:27.160Z,4.90
2018-07-03T19:18:56.077Z,5.57
2018-07-03T19:21:25.123Z,5.50
2018-07-03T19:23:54.036Z,5.87
2018-07-03T19:26:23.474Z,5.13
2018-07-03T19:28:52.329Z,5.37
2018-07-03T19:31:21.223Z,5.73
2018-07-03T19:33:50.166Z,5.50
2018-07-03T19:36:19.492Z,5.77
2018-07-03T19:38:48.592Z,5.53
2018-07-03T19:41:17.533Z,5.57
2018-07-03T19:43:46.508Z,5.60
2018-07-03T19:46:14.929Z,5.57
2018-07-03T19:48:43.848Z,5.50
2018-07-03T19:51:12.736Z,5.60
2018-07-03T19:53:41.681Z,5.40
2018-07-03T19:56:10.623Z,5.47
2018-07-03T19:58:40.392Z,5.67
2018-07-03T20:01:09.340Z,5.83
2018-07-03T20:03:37.839Z,6.13
2018-07-03T20:06:06.464Z,5.50
2018-07-03T20:08:36.177Z,5.67
2018-07-03T20:11:05.964Z,6.00
2018-07-03T20:13:35.934Z,5.93
2018-07-03T20:16:05.299Z,5.97
2018-07-03T20:18:34.174Z,6.00
2018-07-03T20:21:03.069Z,6.13
2018-07-03T20:23:32.052Z,6.20
2018-07-03T20:26:01.090Z,6.73
2018-07-03T20:28:30.347Z,6.20
2018-07-03T20:30:59.227Z,9.50
2018-07-03T20:33:28.161Z,8.50
2018-07-03T20:35:57.016Z,6.83
2018-07-03T20:38:26.019Z,6.60
2018-07-03T20:40:59.360Z,6.30
2018-07-03T20:43:29.535Z,5.90
2018-07-03T20:45:58.556Z,6.03
2018-07-03T20:48:28.080Z,5.63
2018-07-03T20:50:57.453Z,5.43
2018-07-03T20:53:26.428Z,5.90
2018-07-03T20:55:55.307Z,5.93
2018-07-03T20:58:23.968Z,6.23
2018-07-03T21:00:52.901Z,6.27
2018-07-03T21:03:21.824Z,6.33
2018-07-03T21:05:51.959Z,6.40
2018-07-03T21:08:20.812Z,6.73
2018-07-03T21:10:49.789Z,7.20
2018-07-03T21:13:18.676Z,6.60
2018-07-03T21:15:47.680Z,6.17
2018-07-03T21:18:16.612Z,6.10
2018-07-03T21:20:45.488Z,6.40
2018-07-03T21:23:14.391Z,6.33
2018-07-03T21:25:43.251Z,6.77
2018-07-03T21:28:12.141Z,6.47
2018-07-03T21:30:41.033Z,6.80
2018-07-03T21:33:10.033Z,6.37
2018-07-03T21:35:39.780Z,7.00
2018-07-03T21:38:09.483Z,6.60
2018-07-03T21:40:38.362Z,6.37
2018-07-03T21:43:07.428Z,6.90
2018-07-03T21:45:36.305Z,6.93
2018-07-03T21:48:05.164Z,7.40
2018-07-03T21:50:33.684Z,6.63
2018-07-03T21:53:02.661Z,7.33
2018-07-03T22:07:49.747Z,7.17
2018-07-03T22:10:18.683Z,6.70
2018-07-03T22:12:47.506Z,6.90
2018-07-03T22:15:16.376Z,6.40
2018-07-03T22:17:45.262Z,6.47
2018-07-03T22:20:14.176Z,7.40
2018-07-03T22:22:43.060Z,8.17
2018-07-03T22:25:11.920Z,7.63
2018-07-03T22:27:40.937Z,7.80
2018-07-03T22:30:09.872Z,7.30
2018-07-03T22:32:38.789Z,7.40
2018-07-03T22:35:07.672Z,8.10
2018-07-03T22:37:36.620Z,7.47
2018-07-03T22:40:05.465Z,7.67
2018-07-03T22:42:34.431Z,7.23
2018-07-03T22:45:03.303Z,8.13
2018-07-03T22:47:32.265Z,8.00
2018-07-03T22:50:01.344Z,7.43
2018-07-03T22:52:30.275Z,8.00
2018-07-03T22:54:58.680Z,7.63
2018-07-03T22:57:27.584Z,7.97
2018-07-03T22:59:56.535Z,8.10
2018-07-03T23:02:25.405Z,8.50
2018-07-03T23:04:54.300Z,8.07
2018-07-03T23:07:23.636Z,8.23
2018-07-03T23:09:52.596Z,9.00
2018-07-03T23:12:21.665Z,8.47
2018-07-03T23:14:52.249Z,8.87
2018-07-03T23:17:21.185Z,7.93
2018-07-03T23:19:51.095Z,8.10
2018-07-03T23:22:19.972Z,7.63
2018-07-03T23:24:48.828Z,8.97
2018-07-03T23:27:18.112Z,8.60
2018-07-03T23:29:47.001Z,9.30
2018-07-03T23:32:15.894Z,8.67
2018-07-03T23:34:46.657Z,8.97
2018-07-03T23:37:15.587Z,8.50
2018-07-03T23:39:44.843Z,8.60
2018-07-03T23:42:13.663Z,9.03
2018-07-03T23:44:43.556Z,8.40
2018-07-03T23:47:23.348Z,8.20
2018-07-03T23:50:03.352Z,7.67
2018-07-03T23:52:43.388Z,7.90
2018-07-03T23:55:23.284Z,8.60
2018-07-03T23:58:03.364Z,8.40
